createdAt,value
2022-10-19T00:00:10.620Z,102428.66
2022-10-19T00:10:32.350Z,102441.25
2022-10-19T00:21:01.895Z,102435.19
2022-10-19T00:31:23.452Z,102434.94
2022-10-19T00:41:46.066Z,102431.13
2022-10-19T00:52:08.652Z,102447.09
2022-10-19T01:02:30.145Z,102443.53
2022-10-19T01:12:58.092Z,102438.34
2022-10-19T01:23:38.226Z,102443.84
2022-10-19T01:34:02.557Z,102441.66
2022-10-19T01:44:42.768Z,102437.88
2022-10-19T01:55:04.562Z,102431.22
2022-10-19T02:05:30.126Z,102434.34
2022-10-19T02:15:53.472Z,102427.72
2022-10-19T02:26:15.037Z,102425.50
2022-10-19T02:36:36.414Z,102431.56
2022-10-19T02:47:03.010Z,102431.44
2022-10-19T02:57:25.050Z,102444.13
2022-10-19T03:07:46.873Z,102447.56
2022-10-19T03:18:08.220Z,102450.19
2022-10-19T03:28:29.861Z,102444.19
2022-10-19T03:38:51.861Z,102449.38
2022-10-19T03:49:13.258Z,102453.72
2022-10-19T03:59:34.608Z,102449.75
2022-10-19T04:09:56.001Z,102459.47
2022-10-19T04:20:17.349Z,102462.50
2022-10-19T04:30:38.750Z,102475.72
2022-10-19T04:41:04.274Z,102477.84
2022-10-19T04:51:26.352Z,102481.03
2022-10-19T05:01:47.694Z,102477.41
2022-10-19T05:12:09.044Z,102471.22
2022-10-19T05:22:30.407Z,102468.81
2022-10-19T05:32:51.771Z,102461.53
2022-10-19T05:43:13.142Z,102456.91
2022-10-19T05:53:35.128Z,102463.72
2022-10-19T06:03:57.765Z,102454.56
2022-10-19T06:14:19.120Z,102463.13
2022-10-19T06:24:40.470Z,102472.69
2022-10-19T06:35:01.828Z,102480.09
2022-10-19T06:45:23.216Z,102482.38
2022-10-19T06:55:44.648Z,102508.38
2022-10-19T07:06:07.343Z,102513.00
2022-10-19T07:16:28.675Z,102516.22
2022-10-19T07:26:50.095Z,102521.06
2022-10-19T07:37:11.528Z,102527.25
2022-10-19T07:47:34.112Z,102525.91
2022-10-19T07:57:55.577Z,102522.59
2022-10-19T08:08:16.933Z,102529.16
2022-10-19T08:18:38.276Z,102547.25
2022-10-19T08:29:00.617Z,102538.78
2022-10-19T08:39:22.022Z,102542.25
2022-10-19T08:49:44.650Z,102534.09
2022-10-19T09:00:21.470Z,102536.56
2022-10-19T09:10:44.502Z,102536.91
2022-10-19T09:21:11.902Z,102524.59
2022-10-19T09:31:40.488Z,102525.25
2022-10-19T09:42:21.128Z,102517.41
2022-10-19T09:52:43.454Z,102517.88
2022-10-19T10:03:06.124Z,102517.34
2022-10-19T10:13:28.087Z,102516.38
2022-10-19T10:24:08.497Z,102516.25
2022-10-19T10:34:45.575Z,102517.34
2022-10-19T10:45:31.014Z,102506.94
2022-10-19T10:55:56.230Z,102494.47
2022-10-19T11:06:19.515Z,102478.25
2022-10-19T11:16:42.886Z,102459.28
2022-10-19T11:27:17.688Z,102450.63
2022-10-19T11:37:45.773Z,102449.69
2022-10-19T11:48:26.718Z,102441.91
2022-10-19T11:58:54.409Z,102419.97
2022-10-19T12:09:21.945Z,102398.31
2022-10-19T12:19:46.608Z,102401.94
2022-10-19T12:30:08.388Z,102402.66
2022-10-19T12:40:38.418Z,102384.84
2022-10-19T12:51:01.454Z,102373.19
2022-10-19T13:01:43.912Z,102361.03
2022-10-19T13:12:21.829Z,102341.66
2022-10-19T13:22:47.060Z,102331.91
2022-10-19T13:33:31.315Z,102321.16
2022-10-19T13:43:57.897Z,102312.31
2022-10-19T13:54:19.348Z,102298.69
2022-10-19T14:04:59.571Z,102280.47
2022-10-19T14:15:22.471Z,102286.38
2022-10-19T14:25:49.760Z,102272.69
2022-10-19T14:36:16.544Z,102261.75
2022-10-19T14:46:37.990Z,102244.66
2022-10-19T14:57:19.638Z,102237.66
2022-10-19T15:07:42.671Z,102231.88
2022-10-19T15:18:06.623Z,102232.66
2022-10-19T15:28:34.906Z,102239.41
2022-10-19T15:39:17.976Z,102232.78
2022-10-19T15:49:46.976Z,102224.59
2022-10-19T16:00:16.120Z,102224.13
2022-10-19T16:10:37.562Z,102220.47
2022-10-19T16:20:58.950Z,102207.78
2022-10-19T16:31:20.503Z,102208.47
2022-10-19T16:41:41.876Z,102207.97
2022-10-19T16:52:03.321Z,102209.13
2022-10-19T17:02:24.871Z,102204.69
2022-10-19T17:12:46.275Z,102204.91
2022-10-19T17:23:07.631Z,102206.00
2022-10-19T17:33:28.985Z,102200.59
2022-10-19T17:43:53.901Z,102190.94
2022-10-19T17:54:15.441Z,102208.50
2022-10-19T18:15:03.301Z,102202.63
2022-10-19T18:25:36.103Z,102203.53
2022-10-19T18:36:06.961Z,102191.53
2022-10-19T18:46:28.669Z,102177.22
2022-10-19T18:56:50.087Z,102149.31
2022-10-19T19:07:11.495Z,102131.59
2022-10-19T19:17:32.841Z,102139.22
2022-10-19T19:27:54.203Z,102122.97
2022-10-19T19:38:16.516Z,102122.38
2022-10-19T19:48:38.601Z,102121.72
2022-10-19T19:59:03.110Z,102117.44
2022-10-19T20:09:26.480Z,102112.72
2022-10-19T20:19:47.834Z,102108.09
2022-10-19T20:30:09.964Z,102092.00
2022-10-19T20:40:31.470Z,102069.00
2022-10-19T20:50:52.836Z,102071.09
2022-10-19T21:01:15.629Z,102067.59
2022-10-19T21:11:38.414Z,102049.94
2022-10-19T21:22:03.852Z,102032.97
2022-10-19T21:32:25.500Z,102029.13
2022-10-19T21:42:46.857Z,102028.72
2022-10-19T21:53:08.229Z,102021.00
2022-10-19T22:03:29.567Z,101995.81
2022-10-19T22:13:57.931Z,101976.00
2022-10-19T22:24:19.299Z,101977.50
2022-10-19T22:34:40.645Z,101972.59
2022-10-19T22:45:02.070Z,101950.16
2022-10-19T22:55:23.412Z,101949.47
2022-10-19T23:05:44.789Z,101936.31
2022-10-19T23:16:06.381Z,101931.09
2022-10-19T23:26:27.744Z,101921.56
2022-10-19T23:36:49.078Z,101924.84
2022-10-19T23:47:10.517Z,101916.59
2022-10-19T23:57:31.878Z,101881.28
